Terminal Aerodrome Forecast
Issued by NWS

Home | Current Version | Previous Version | Text Only | Print | Product List | Glossary On
Versions: 1 2 3 4 5 6 7 8 9 10 11 12 13 14 15 16 17 18 19 20 21 22 23 24 25 26
000
FTUS43 KAPX 280959 AAA
TAFMBL
TAF AMD
KMBL 280959Z 2810/2906 09004KT 6SM BR BKN120
     FM281400 19008KT P6SM BKN030
     FM281700 20010KT P6SM BKN035
     FM282100 20007KT P6SM SCT040 BKN150
     FM290300 20004KT P6SM VCSH SCT060 OVC100
      AMD LTD TO CLD VIS AND WIND=

USA.gov is the U.S. government's official web portal to all federal, state and local government web resources and services.